This is the latest recevied weather packets stored in our database for station/object EA3ANS-1. If no packets are shown the sender has not sent any weather packets the latest 10 day(s).
| Time | Temp. | Humidity | Pressure | Rain* | Wind** | Luminosity | Snow |
|---|---|---|---|---|---|---|---|
| 1777779775 | 16.67° C | - | 1016.5 hPa | 0 mm | 0 m/s | - | - |
| 1777779178 | 16.67° C | - | 1016.7 hPa | 0 mm | 0 m/s | - | - |
| 1777778580 | 16.11° C | - | 1016.7 hPa | 0 mm | 0.89 m/s, 72° | - | - |
| 1777777983 | 16.67° C | - | 1016.7 hPa | 0 mm | 1.34 m/s, 14° | - | - |
| 1777777385 | 16.67° C | - | 1016.7 hPa | 0 mm | 1.34 m/s, 62° | - | - |
| 1777776778 | 16.67° C | - | 1016.8 hPa | 0 mm | 1.79 m/s, 69° | - | - |
| 1777776180 | 16.67° C | - | 1016.9 hPa | 0 mm | 0.45 m/s, 218° | - | - |
| 1777775580 | 16.67° C | - | 1017 hPa | 0 mm | 0 m/s | - | - |
| 1777774982 | 16.67° C | - | 1017 hPa | 0 mm | 0 m/s | - | - |
| 1777774385 | 16.67° C | - | 1016.9 hPa | 0 mm | 0 m/s | - | - |
| 1777773788 | 16.67° C | - | 1017 hPa | 0 mm | 0.89 m/s, 84° | - | - |
| 1777773190 | 16.67° C | - | 1017.1 hPa | 0 mm | 0.45 m/s, 110° | - | - |
| 1777772583 | 16.67° C | - | 1017.1 hPa | 0 mm | 0.89 m/s, 135° | - | - |
| 1777771985 | 16.67° C | - | 1017.1 hPa | 0 mm | 0.89 m/s, 150° | - | - |
| 1777771388 | 17.22° C | - | 1017.2 hPa | 0 mm | 0.89 m/s, 143° | - | - |
| 1777770790 | 16.67° C | - | 1017.3 hPa | 0 mm | 1.34 m/s, 105° | - | - |
| 1777770188 | 17.22° C | - | 1017.2 hPa | 0 mm | 0.89 m/s, 53° | - | - |
| 1777769591 | 16.67° C | - | 1017.4 hPa | 0 mm | 1.34 m/s, 108° | - | - |
| 1777768993 | 17.22° C | - | 1017.7 hPa | 0 mm | 1.79 m/s, 45° | - | - |
| 1777768388 | 17.22° C | - | 1017.9 hPa | 0 mm | 1.79 m/s, 91° | - | - |
| 1777767791 | 17.22° C | - | 1018 hPa | 0 mm | 1.79 m/s, 84° | - | - |
| 1777767191 | 16.67° C | - | 1018.2 hPa | 0 mm | 1.79 m/s, 56° | - | - |
| 1777766592 | 17.22° C | - | 1018.3 hPa | 0 mm | 1.79 m/s, 63° | - | - |
| 1777765995 | 17.22° C | - | 1018.3 hPa | 0 mm | 0 m/s | - | - |
| 1777765396 | 17.22° C | - | 1018.3 hPa | 0 mm | 0.89 m/s, 90° | - | - |
* Rain latest hour (hover to see other rain measurements)
** Current wind speed in m/s (hover to see current wind gust speed)